Time;durP1;ratioP1;P1;durP2;ratioP2;P2;SDS_P1;SDS_P2;PMS_P1;PMS_P2;Temp;Humidity;BMP_temperature;BMP_pressure;BME280_temperature;BME280_humidity;BME280_pressure;Samples;Min_cycle;Max_cycle;Signal;HPM_P1;HPM_P2
2022/08/25 00:00:59;;;;;;;2.58;2.38;;;21.00;64.40;;;;;;5039172;28;20450;-76
2022/08/25 00:03:25;;;;;;;2.58;2.00;;;20.80;64.50;;;;;;5021691;28;20112;-73
2022/08/25 00:05:50;;;;;;;2.88;2.47;;;20.80;65.30;;;;;;5039627;28;20482;-74
2022/08/25 00:08:16;;;;;;;2.47;2.28;;;20.60;66.20;;;;;;5039782;28;20061;-73
2022/08/25 00:10:41;;;;;;;2.67;2.00;;;20.40;66.90;;;;;;5046101;28;20025;-76
2022/08/25 00:13:08;;;;;;;3.20;2.42;;;20.30;67.20;;;;;;5039582;28;20025;-77
2022/08/25 00:15:33;;;;;;;2.28;2.05;;;20.30;67.40;;;;;;5040713;28;20429;-80
2022/08/25 00:17:59;;;;;;;3.38;2.20;;;20.40;67.30;;;;;;5039759;28;20083;-79
2022/08/25 00:20:26;;;;;;;3.15;2.50;;;20.30;67.40;;;;;;5039394;28;20112;-80
2022/08/25 00:22:52;;;;;;;3.05;2.60;;;20.30;67.20;;;;;;5038907;28;20032;-79
2022/08/25 00:25:18;;;;;;;2.70;2.00;;;20.30;67.10;;;;;;5039415;28;20029;-79
2022/08/25 00:27:44;;;;;;;3.42;2.40;;;20.20;67.30;;;;;;5039364;28;20034;-79
2022/08/25 00:30:10;;;;;;;2.80;2.17;;;20.10;68.10;;;;;;5039479;28;20446;-80
2022/08/25 00:32:36;;;;;;;2.33;2.13;;;20.00;68.80;;;;;;5040056;28;20467;-81
2022/08/25 00:35:03;;;;;;;3.00;2.63;;;20.00;68.80;;;;;;5039303;28;20382;-80
2022/08/25 00:37:29;;;;;;;3.53;2.30;;;19.90;68.90;;;;;;5039254;28;20036;-81
2022/08/25 00:39:55;;;;;;;2.58;2.20;;;19.90;69.00;;;;;;5039140;28;20022;-80
2022/08/25 00:42:22;;;;;;;3.15;2.72;;;19.80;69.30;;;;;;5039202;28;20097;-80
2022/08/25 00:44:48;;;;;;;3.63;2.75;;;19.80;69.70;;;;;;5039157;28;20418;-80
2022/08/25 00:47:13;;;;;;;2.63;2.42;;;19.60;70.10;;;;;;5039309;28;20068;-80
2022/08/25 00:49:43;;;;;;;3.50;2.72;;;19.60;70.20;;;;;;5021435;28;20025;-80
2022/08/25 00:52:20;;;;;;;4.57;2.60;;;19.40;70.80;;;;;;5039136;28;20148;-80
2022/08/25 00:54:55;;;;;;;5.03;2.60;;;19.40;70.70;;;;;;5039266;28;20112;-80
2022/08/25 00:57:26;;;;;;;3.58;2.45;;;19.40;70.90;;;;;;5039034;28;20021;-80
2022/08/25 00:59:52;;;;;;;4.95;3.08;;;19.50;70.90;;;;;;5038864;28;20046;-79
2022/08/25 01:02:17;;;;;;;3.40;2.63;;;19.60;70.90;;;;;;5039029;28;20036;-80
2022/08/25 01:04:45;;;;;;;5.18;3.00;;;19.60;70.20;;;;;;5035887;28;20140;-80
2022/08/25 01:07:11;;;;;;;4.75;2.33;;;19.70;70.00;;;;;;5035964;28;20022;-80
2022/08/25 01:09:37;;;;;;;3.50;2.50;;;19.80;69.90;;;;;;5035963;28;20021;-80
2022/08/25 01:12:04;;;;;;;4.47;2.58;;;19.90;69.60;;;;;;5035846;28;20079;-80
2022/08/25 01:14:31;;;;;;;3.65;2.58;;;20.00;69.10;;;;;;5036158;28;20032;-80
2022/08/25 01:16:58;;;;;;;2.88;2.40;;;20.00;68.50;;;;;;5035779;28;20516;-79
2022/08/25 01:19:24;;;;;;;3.78;2.60;;;20.00;68.30;;;;;;5035603;28;20030;-79
2022/08/25 01:21:52;;;;;;;3.03;2.72;;;19.80;68.70;;;;;;5035627;28;20053;-79
2022/08/25 01:24:43;;;;;;;3.70;2.10;;;19.70;69.20;;;;;;5035658;28;20028;-80
2022/08/25 01:27:10;;;;;;;3.88;2.20;;;19.70;69.40;;;;;;5035586;28;20021;-80
2022/08/25 01:29:36;;;;;;;5.72;2.63;;;19.70;69.60;;;;;;5035689;28;20142;-80
2022/08/25 01:32:09;;;;;;;3.58;3.05;;;19.70;69.60;;;;;;5035362;28;20053;-80
2022/08/25 01:34:39;;;;;;;3.63;2.47;;;19.70;69.50;;;;;;5035624;28;20409;-80
2022/08/25 01:37:05;;;;;;;2.90;2.70;;;19.70;69.60;;;;;;5035489;28;20383;-79
2022/08/25 01:39:35;;;;;;;2.70;2.40;;;19.70;69.40;;;;;;5035415;28;20104;-79
2022/08/25 01:42:10;;;;;;;3.85;2.60;;;19.70;69.80;;;;;;5035344;28;20434;-79
2022/08/25 01:44:44;;;;;;;2.83;2.53;;;19.50;70.10;;;;;;5035351;28;20021;-80
2022/08/25 01:47:10;;;;;;;2.97;2.42;;;19.50;70.30;;;;;;5035154;28;20029;-80
2022/08/25 01:49:36;;;;;;;3.30;2.60;;;19.50;70.40;;;;;;5035090;28;20492;-79
2022/08/25 01:52:27;;;;;;;3.08;2.17;;;19.50;70.40;;;;;;5035044;28;20105;-79
2022/08/25 01:54:52;;;;;;;3.03;2.72;;;19.50;70.70;;;;;;5035110;28;20029;-80
2022/08/25 01:57:18;;;;;;;9.20;3.50;;;19.40;70.70;;;;;;5035282;28;20076;-81
2022/08/25 01:59:44;;;;;;;6.13;3.03;;;19.50;70.60;;;;;;5034571;28;20080;-81
2022/08/25 02:02:10;;;;;;;2.40;2.20;;;19.40;70.60;;;;;;5034899;28;20021;-79
2022/08/25 02:04:36;;;;;;;4.45;2.60;;;19.50;70.40;;;;;;5034809;28;20557;-81
2022/08/25 02:07:04;;;;;;;5.18;2.35;;;19.50;70.40;;;;;;5034781;28;20071;-79
2022/08/25 02:09:31;;;;;;;5.78;2.53;;;19.60;70.30;;;;;;5034762;28;20025;-77
2022/08/25 02:11:56;;;;;;;3.63;2.72;;;19.60;70.10;;;;;;5034523;28;20036;-75
2022/08/25 02:14:22;;;;;;;3.08;2.28;;;19.60;70.00;;;;;;5034450;28;20414;-76
2022/08/25 02:16:50;;;;;;;3.53;2.50;;;19.60;70.10;;;;;;5033224;28;20033;-75
2022/08/25 02:19:17;;;;;;;4.63;2.70;;;19.70;69.80;;;;;;5034261;28;20014;-75
2022/08/25 02:21:43;;;;;;;3.05;2.70;;;19.70;70.40;;;;;;5034338;28;20465;-75
2022/08/25 02:24:10;;;;;;;4.38;2.88;;;19.80;69.30;;;;;;5034401;28;20030;-76
2022/08/25 02:26:36;;;;;;;2.60;2.40;;;19.80;69.20;;;;;;5034292;28;20034;-76
2022/08/25 02:29:04;;;;;;;4.78;2.40;;;19.80;69.00;;;;;;5034310;28;20104;-74
2022/08/25 02:31:30;;;;;;;2.80;2.28;;;19.90;69.10;;;;;;5034236;28;20032;-74
2022/08/25 02:33:56;;;;;;;4.30;2.70;;;19.90;68.90;;;;;;5033994;28;20029;-76
2022/08/25 02:36:22;;;;;;;3.53;2.85;;;20.00;68.50;;;;;;5016453;28;20022;-75
2022/08/25 02:38:48;;;;;;;3.05;2.65;;;20.00;68.40;;;;;;5034090;28;20049;-74
2022/08/25 02:41:19;;;;;;;2.55;2.33;;;20.00;68.40;;;;;;5033777;28;20451;-75
2022/08/25 02:43:47;;;;;;;4.40;2.50;;;20.00;68.70;;;;;;5033916;28;20106;-75
2022/08/25 02:46:13;;;;;;;5.88;2.58;;;19.90;69.00;;;;;;5033994;28;20025;-75
2022/08/25 02:48:40;;;;;;;3.88;2.78;;;19.90;69.20;;;;;;5033805;28;20124;-74
2022/08/25 02:51:07;;;;;;;3.30;3.00;;;19.80;69.20;;;;;;5034026;28;20028;-74
2022/08/25 02:53:34;;;;;;;2.75;2.50;;;19.80;69.50;;;;;;5016233;28;20120;-74
2022/08/25 02:56:00;;;;;;;5.25;2.60;;;19.80;69.20;;;;;;5033736;28;20033;-74
2022/08/25 02:58:26;;;;;;;2.67;2.40;;;19.90;69.10;;;;;;5033815;28;20032;-75
2022/08/25 03:00:52;;;;;;;5.50;2.90;;;20.00;68.90;;;;;;5015823;28;20401;-74
2022/08/25 03:03:19;;;;;;;4.18;2.53;;;19.90;68.90;;;;;;5033711;28;20030;-75
2022/08/25 03:05:45;;;;;;;5.03;2.90;;;19.80;69.20;;;;;;5033724;28;20478;-75
2022/08/25 03:08:10;;;;;;;3.65;3.03;;;19.70;70.70;;;;;;5033672;28;20164;-77
2022/08/25 03:10:36;;;;;;;6.45;3.22;;;19.60;70.30;;;;;;5033706;28;20439;-76
2022/08/25 03:13:02;;;;;;;4.45;2.80;;;19.50;71.10;;;;;;5016107;28;20022;-75
2022/08/25 03:15:28;;;;;;;3.90;2.90;;;19.40;71.70;;;;;;5033428;28;20042;-74
2022/08/25 03:17:54;;;;;;;4.63;3.03;;;19.40;71.60;;;;;;5033325;28;20034;-75
2022/08/25 03:20:21;;;;;;;5.25;3.15;;;19.40;71.80;;;;;;5033302;28;20029;-74
2022/08/25 03:22:47;;;;;;;3.45;2.65;;;19.30;71.80;;;;;;5033308;28;20025;-74
2022/08/25 03:27:58;;;;;;;3.43;2.90;;;19.20;72.30;;;;;;5033243;28;20498;-76
2022/08/25 03:30:24;;;;;;;3.40;3.08;;;19.00;72.80;;;;;;5015352;28;20034;-76
2022/08/25 03:32:50;;;;;;;3.75;3.22;;;19.00;73.00;;;;;;5033749;28;20458;-75
2022/08/25 03:35:15;;;;;;;3.80;2.97;;;19.00;73.20;;;;;;5033448;28;20087;-73
2022/08/25 03:37:41;;;;;;;3.55;2.80;;;19.20;73.00;;;;;;5033569;28;20029;-73
2022/08/25 03:40:10;;;;;;;4.22;3.15;;;19.20;72.70;;;;;;5033525;28;20033;-74
2022/08/25 03:42:40;;;;;;;3.13;2.75;;;19.30;72.70;;;;;;5034296;28;20064;-78
2022/08/25 03:45:07;;;;;;;6.22;2.63;;;19.30;73.00;;;;;;5033723;28;20039;-77
2022/08/25 03:47:33;;;;;;;5.25;2.70;;;19.40;71.80;;;;;;5033667;28;20497;-77
2022/08/25 03:49:58;;;;;;;4.05;3.08;;;19.40;71.50;;;;;;5041282;28;20032;-75
2022/08/25 03:52:24;;;;;;;4.47;2.88;;;19.50;71.40;;;;;;5044030;28;20026;-74
2022/08/25 03:54:49;;;;;;;4.10;2.70;;;19.40;71.20;;;;;;5050283;28;20037;-77
2022/08/25 03:57:15;;;;;;;4.60;3.38;;;19.40;72.20;;;;;;5017417;28;20549;-76
2022/08/25 03:59:40;;;;;;;3.97;3.20;;;19.40;71.30;;;;;;5036149;28;20103;-77
2022/08/25 04:02:07;;;;;;;3.53;3.17;;;19.40;71.50;;;;;;5033234;28;20108;-77
2022/08/25 04:04:33;;;;;;;4.60;2.97;;;19.40;71.50;;;;;;5033103;28;20036;-79
2022/08/25 04:07:00;;;;;;;2.65;2.45;;;19.40;71.60;;;;;;5032796;28;20076;-74
2022/08/25 04:09:26;;;;;;;4.05;3.03;;;19.40;71.50;;;;;;5032746;28;20386;-74
2022/08/25 04:11:52;;;;;;;4.95;3.80;;;19.30;71.40;;;;;;5032503;28;20032;-81
2022/08/25 04:14:19;;;;;;;6.20;3.65;;;19.30;71.60;;;;;;5032655;28;20018;-80
2022/08/25 04:16:45;;;;;;;5.30;4.28;;;19.20;71.80;;;;;;5032982;28;20036;-77
2022/08/25 04:19:11;;;;;;;5.60;3.78;;;19.10;71.70;;;;;;5032846;28;20022;-79
2022/08/25 04:21:38;;;;;;;4.30;3.88;;;19.00;71.90;;;;;;5014743;28;20026;-77
2022/08/25 04:24:08;;;;;;;4.20;3.20;;;19.00;72.20;;;;;;5032773;28;20156;-79
2022/08/25 04:26:49;;;;;;;4.93;3.55;;;18.90;72.40;;;;;;5032490;28;20044;-79
2022/08/25 04:29:18;;;;;;;4.93;3.00;;;18.90;72.60;;;;;;5032733;28;20159;-78
2022/08/25 04:31:51;;;;;;;4.60;3.38;;;18.80;72.80;;;;;;5032577;28;20108;-77
2022/08/25 04:34:17;;;;;;;3.83;3.28;;;18.80;73.00;;;;;;5032547;28;20029;-72
2022/08/25 04:36:43;;;;;;;4.78;2.88;;;18.70;73.10;;;;;;5032333;28;20375;-71
2022/08/25 04:39:09;;;;;;;3.13;2.83;;;18.80;73.20;;;;;;5033224;28;20032;-71
2022/08/25 04:41:34;;;;;;;4.68;3.38;;;18.80;73.20;;;;;;5036145;28;20044;-71
2022/08/25 04:44:01;;;;;;;3.30;2.78;;;18.70;73.20;;;;;;5036250;28;20029;-71
2022/08/25 04:46:30;;;;;;;5.47;3.13;;;18.70;73.40;;;;;;5036338;28;20035;-74
2022/08/25 04:48:56;;;;;;;5.70;3.30;;;18.60;73.50;;;;;;5036101;28;20022;-71
2022/08/25 04:51:26;;;;;;;3.53;2.70;;;18.60;73.50;;;;;;5036092;28;20061;-72
2022/08/25 04:53:53;;;;;;;5.00;3.00;;;18.50;73.60;;;;;;5036062;28;20026;-71
2022/08/25 04:56:20;;;;;;;2.95;2.58;;;18.50;73.70;;;;;;5036490;28;20033;-75
2022/08/25 04:58:46;;;;;;;4.60;3.05;;;18.60;73.70;;;;;;5036920;28;20029;-75
2022/08/25 05:01:14;;;;;;;5.88;2.92;;;18.50;73.70;;;;;;5036082;28;20060;-76
2022/08/25 05:03:40;;;;;;;4.85;2.80;;;18.50;73.80;;;;;;5018274;28;20064;-74
2022/08/25 05:06:06;;;;;;;4.45;3.30;;;18.50;73.80;;;;;;5036334;28;20069;-75
2022/08/25 05:08:33;;;;;;;5.93;2.95;;;18.40;73.70;;;;;;5035785;28;20053;-76
2022/08/25 05:11:03;;;;;;;8.23;3.42;;;18.40;73.70;;;;;;5035629;28;20022;-78
2022/08/25 05:13:28;;;;;;;15.52;4.47;;;18.50;73.90;;;;;;5035686;28;20386;-77
2022/08/25 05:15:56;;;;;;;6.93;3.78;;;18.70;74.00;;;;;;5035518;28;20021;-77
2022/08/25 05:18:24;;;;;;;5.03;3.03;;;18.80;72.90;;;;;;5035635;28;20017;-77
2022/08/25 05:20:52;;;;;;;7.65;3.08;;;19.00;72.30;;;;;;5035494;28;20509;-78
2022/08/25 05:23:19;;;;;;;3.30;2.83;;;19.20;71.40;;;;;;5035525;28;20023;-77
2022/08/25 05:25:44;;;;;;;7.07;3.40;;;19.30;71.80;;;;;;5036041;28;20482;-77
2022/08/25 05:28:10;;;;;;;6.22;3.40;;;19.40;70.60;;;;;;5034873;28;20026;-74
2022/08/25 05:30:40;;;;;;;6.53;3.03;;;19.60;69.80;;;;;;5035292;28;20359;-78
2022/08/25 05:33:06;;;;;;;5.50;2.97;;;19.60;69.70;;;;;;5035405;28;20025;-78
2022/08/25 05:35:31;;;;;;;5.03;3.47;;;19.60;69.60;;;;;;5035136;28;20080;-79
2022/08/25 05:37:57;;;;;;;6.10;3.40;;;19.60;69.40;;;;;;5017204;28;20040;-77
2022/08/25 05:40:23;;;;;;;5.40;3.80;;;19.70;69.00;;;;;;5034874;28;20117;-77
2022/08/25 05:42:49;;;;;;;8.07;3.60;;;19.70;68.70;;;;;;5034774;28;20021;-78
2022/08/25 05:45:16;;;;;;;5.65;4.15;;;19.80;68.20;;;;;;5034716;28;20436;-77
2022/08/25 05:47:42;;;;;;;7.28;3.67;;;19.80;67.70;;;;;;5034725;28;20072;-77
2022/08/25 05:50:08;;;;;;;6.20;4.00;;;20.00;67.70;;;;;;5016859;28;20034;-77
2022/08/25 05:52:34;;;;;;;7.07;3.58;;;19.90;67.40;;;;;;5034886;28;20478;-77
2022/08/25 05:54:59;;;;;;;7.20;4.00;;;20.00;67.40;;;;;;5034607;28;20029;-76
2022/08/25 05:57:25;;;;;;;5.15;3.60;;;20.00;67.20;;;;;;5034701;28;20021;-76
2022/08/25 05:59:51;;;;;;;5.55;3.10;;;20.00;67.20;;;;;;5034232;28;20045;-77
2022/08/25 06:05:01;;;;;;;6.45;3.60;;;20.10;67.10;;;;;;5035314;28;20060;-86
2022/08/25 06:07:27;;;;;;;4.82;3.50;;;20.10;67.10;;;;;;5035767;28;20418;-89
2022/08/25 06:09:52;;;;;;;6.72;3.70;;;20.20;67.20;;;;;;5034798;28;20152;-83
2022/08/25 06:12:20;;;;;;;5.15;3.55;;;20.20;67.10;;;;;;5035042;28;20071;-84
2022/08/25 06:14:47;;;;;;;4.60;3.60;;;20.30;67.20;;;;;;5035550;28;20040;-82
2022/08/25 06:17:12;;;;;;;7.15;4.25;;;20.30;67.20;;;;;;5017124;28;20478;-81
2022/08/25 06:19:38;;;;;;;5.57;4.10;;;20.40;67.10;;;;;;5035381;28;20034;-81
2022/08/25 06:22:03;;;;;;;7.03;3.85;;;20.50;67.00;;;;;;5035485;28;20060;-90
2022/08/25 06:24:29;;;;;;;4.93;3.53;;;20.50;67.10;;;;;;5035437;28;20021;-83
2022/08/25 06:26:56;;;;;;;11.45;3.78;;;20.70;66.90;;;;;;5035677;28;20060;-87
2022/08/25 06:29:21;;;;;;;11.13;4.03;;;20.80;66.80;;;;;;5035338;28;20030;-90
2022/08/25 06:31:48;;;;;;;6.00;3.75;;;20.90;66.50;;;;;;5035170;28;20065;-83
2022/08/25 06:34:15;;;;;;;9.40;4.20;;;20.90;66.40;;;;;;5034259;28;20053;-82
2022/08/25 06:36:41;;;;;;;4.38;3.40;;;21.10;66.00;;;;;;5034386;28;20466;-83
2022/08/25 06:39:08;;;;;;;6.85;4.22;;;21.20;65.70;;;;;;5034823;28;20030;-84
2022/08/25 06:41:33;;;;;;;8.68;3.90;;;21.10;65.70;;;;;;5034275;28;20038;-83
2022/08/25 06:43:59;;;;;;;13.15;4.50;;;21.20;65.60;;;;;;5034074;28;20017;-81
2022/08/25 06:46:26;;;;;;;8.55;3.45;;;21.30;65.20;;;;;;5016183;28;20040;-81
2022/08/25 06:48:56;;;;;;;4.65;3.38;;;21.40;65.10;;;;;;5034095;28;20100;-78
2022/08/25 06:51:23;;;;;;;21.13;4.93;;;21.50;64.70;;;;;;5033780;28;20021;-79
2022/08/25 06:53:50;;;;;;;14.02;4.25;;;21.70;64.40;;;;;;5032884;28;20381;-81
2022/08/25 06:56:17;;;;;;;11.18;3.97;;;21.70;64.20;;;;;;5027848;28;20124;-78
2022/08/25 06:58:43;;;;;;;20.80;4.63;;;21.70;64.30;;;;;;5016084;28;20052;-77
2022/08/25 07:01:11;;;;;;;14.25;4.60;;;21.80;63.90;;;;;;5030152;28;20150;-79
2022/08/25 07:03:37;;;;;;;13.07;4.95;;;21.90;63.60;;;;;;5033273;28;20022;-79
2022/08/25 07:06:04;;;;;;;9.30;4.75;;;22.00;63.20;;;;;;5033248;28;20033;-78
2022/08/25 07:08:30;;;;;;;15.32;4.78;;;22.00;63.20;;;;;;5033327;28;20363;-77
2022/08/25 07:10:56;;;;;;;19.38;4.80;;;22.00;63.10;;;;;;5032991;28;20025;-77
2022/08/25 07:13:22;;;;;;;11.93;5.32;;;22.10;63.30;;;;;;5033364;28;20029;-78
2022/08/25 07:15:53;;;;;;;8.02;4.20;;;22.20;63.20;;;;;;5033042;28;20362;-80
2022/08/25 07:18:18;;;;;;;7.53;4.22;;;22.30;62.90;;;;;;5033063;28;20101;-76
2022/08/25 07:20:44;;;;;;;7.85;3.90;;;22.40;62.40;;;;;;5033154;28;20116;-77
2022/08/25 07:23:10;;;;;;;6.90;3.67;;;22.50;62.40;;;;;;5033225;28;20024;-77
2022/08/25 07:25:35;;;;;;;13.30;4.38;;;22.60;62.10;;;;;;5033045;28;20029;-77
2022/08/25 07:28:02;;;;;;;8.13;4.07;;;22.60;62.10;;;;;;5024092;28;20037;-78
2022/08/25 07:30:28;;;;;;;6.88;3.75;;;22.70;61.70;;;;;;5033089;28;20083;-78
2022/08/25 07:32:53;;;;;;;10.80;3.75;;;22.80;61.80;;;;;;5033018;28;20107;-80
2022/08/25 07:35:22;;;;;;;13.30;3.85;;;22.80;61.40;;;;;;5005377;28;20026;-74
2022/08/25 07:37:56;;;;;;;5.20;3.30;;;22.90;61.70;;;;;;5013339;28;20478;-73
2022/08/25 07:40:25;;;;;;;11.07;3.70;;;23.10;61.20;;;;;;5013233;28;20115;-75
2022/08/25 07:42:53;;;;;;;5.00;3.92;;;23.10;60.80;;;;;;5018813;28;20277;-73
2022/08/25 07:45:24;;;;;;;8.82;4.22;;;23.00;60.40;;;;;;5013730;28;20022;-76
2022/08/25 07:47:52;;;;;;;8.20;4.45;;;23.00;61.10;;;;;;4996827;28;20033;-74
2022/08/25 07:50:18;;;;;;;5.35;3.55;;;22.90;59.80;;;;;;5013216;28;20068;-79
2022/08/25 07:52:45;;;;;;;6.35;3.83;;;22.90;60.90;;;;;;5012953;28;20029;-76
2022/08/25 07:55:10;;;;;;;10.40;4.20;;;22.90;60.40;;;;;;5013401;28;20093;-76
2022/08/25 07:57:39;;;;;;;7.28;3.60;;;23.10;60.20;;;;;;5012993;28;20026;-77
2022/08/25 08:00:05;;;;;;;10.60;4.50;;;23.10;60.80;;;;;;5012803;28;20061;-76
2022/08/25 08:02:31;;;;;;;10.95;4.20;;;23.20;59.40;;;;;;5012952;28;20029;-76
2022/08/25 08:04:58;;;;;;;19.25;4.68;;;23.20;58.90;;;;;;5012508;28;20029;-76
2022/08/25 08:07:25;;;;;;;4.60;3.90;;;23.20;58.60;;;;;;5012872;28;20044;-77
2022/08/25 08:09:51;;;;;;;13.82;4.38;;;23.20;58.80;;;;;;5013164;28;20028;-77
2022/08/25 08:12:17;;;;;;;12.48;4.13;;;23.20;58.60;;;;;;5012656;28;20037;-78
2022/08/25 08:14:43;;;;;;;5.80;4.25;;;23.10;59.20;;;;;;5016574;28;20026;-78
2022/08/25 08:17:10;;;;;;;7.20;4.85;;;23.10;59.10;;;;;;5016487;28;20437;-79
2022/08/25 08:19:36;;;;;;;6.90;4.30;;;23.10;58.70;;;;;;5019191;28;20051;-74
2022/08/25 08:22:02;;;;;;;5.72;4.03;;;23.20;58.00;;;;;;5024291;28;20031;-74
2022/08/25 08:24:29;;;;;;;6.20;4.35;;;23.20;58.30;;;;;;5036486;28;20041;-76
2022/08/25 08:26:55;;;;;;;5.53;3.72;;;23.20;57.80;;;;;;5036458;28;20393;-75
2022/08/25 08:29:21;;;;;;;7.45;4.28;;;23.20;57.10;;;;;;5036127;28;20104;-74
2022/08/25 08:31:47;;;;;;;5.50;3.80;;;23.30;56.90;;;;;;5036173;28;20021;-80
2022/08/25 08:34:14;;;;;;;4.70;3.60;;;23.20;57.30;;;;;;5036537;28;20034;-78
2022/08/25 08:36:39;;;;;;;5.90;3.47;;;23.20;56.00;;;;;;5035940;28;20078;-81
2022/08/25 08:39:05;;;;;;;6.32;3.78;;;23.20;55.50;;;;;;5036674;28;20034;-83
2022/08/25 08:44:55;;;;;;;7.03;3.42;;;23.20;55.60;;;;;;5036213;28;20433;-75
2022/08/25 08:48:05;;;;;;;3.55;2.92;;;23.20;55.70;;;;;;5035884;28;20021;-77
2022/08/25 08:50:41;;;;;;;3.45;2.90;;;23.40;55.00;;;;;;4974927;28;20041;-77
2022/08/25 08:53:18;;;;;;;4.60;2.80;;;23.50;55.20;;;;;;5027790;28;20435;-75
2022/08/25 08:55:58;;;;;;;8.07;3.25;;;23.50;53.80;;;;;;5035641;28;20351;-75
2022/08/25 08:58:58;;;;;;;3.97;3.30;;;23.60;53.80;;;;;;5035664;28;20112;-75
2022/08/25 09:01:33;;;;;;;6.35;2.95;;;23.70;54.10;;;;;;5034226;28;20049;-74
2022/08/25 09:04:38;;;;;;;14.13;2.90;;;23.90;53.20;;;;;;5035726;28;20065;-78
2022/08/25 09:07:10;;;;;;;7.00;3.25;;;23.90;53.40;;;;;;5022324;28;20124;-80
2022/08/25 09:09:38;;;;;;;5.65;2.83;;;23.90;53.10;;;;;;5029006;28;20501;-79
2022/08/25 09:12:35;;;;;;;3.70;2.72;;;24.10;52.50;;;;;;5017267;28;20442;-85
2022/08/25 09:18:55;;;;;;;4.45;2.97;;;24.30;50.60;;;;;;4970027;28;20124;-81
2022/08/25 09:21:40;;;;;;;5.85;2.90;;;24.30;50.70;;;;;;5015236;28;20030;-77
2022/08/25 09:24:13;;;;;;;6.07;2.45;;;24.30;51.30;;;;;;5013934;28;20048;-80
2022/08/25 09:27:05;;;;;;;3.45;3.00;;;24.50;50.90;;;;;;5015402;28;20088;-83
2022/08/25 09:30:04;;;;;;;3.15;2.65;;;24.70;50.10;;;;;;5006954;28;20129;-81
2022/08/25 09:32:36;;;;;;;5.15;2.92;;;24.90;50.30;;;;;;5007214;28;20074;-77
2022/08/25 09:35:02;;;;;;;3.40;2.55;;;25.20;48.90;;;;;;5015369;28;20025;-80
2022/08/25 09:37:28;;;;;;;3.42;2.55;;;25.20;47.90;;;;;;4997501;28;20115;-78
2022/08/25 09:39:53;;;;;;;4.75;3.30;;;25.50;48.40;;;;;;5014824;28;20061;-77
2022/08/25 09:42:20;;;;;;;2.92;2.50;;;25.60;47.10;;;;;;5014937;28;20029;-77
2022/08/25 09:44:47;;;;;;;4.05;3.30;;;25.70;47.90;;;;;;5015180;28;20157;-79
2022/08/25 09:47:23;;;;;;;3.65;2.70;;;25.80;46.90;;;;;;5014886;28;20029;-76
2022/08/25 09:49:59;;;;;;;4.05;2.53;;;25.80;46.00;;;;;;5015006;28;20022;-80
2022/08/25 09:52:30;;;;;;;3.17;2.88;;;25.80;45.50;;;;;;5014847;28;20470;-77
2022/08/25 09:54:59;;;;;;;7.68;2.67;;;26.00;46.70;;;;;;5014955;28;20113;-79
2022/08/25 09:57:33;;;;;;;3.08;2.38;;;26.10;45.10;;;;;;4997531;28;20453;-78
2022/08/25 10:00:14;;;;;;;3.55;2.30;;;26.20;45.00;;;;;;5014728;28;20041;-77
2022/08/25 10:02:41;;;;;;;3.10;2.30;;;26.30;44.30;;;;;;5015132;28;20029;-81
2022/08/25 10:05:24;;;;;;;5.05;2.88;;;26.40;43.00;;;;;;5015312;28;20033;-80
2022/08/25 10:08:02;;;;;;;4.28;2.80;;;26.50;43.00;;;;;;5016222;28;20053;-78
2022/08/25 10:10:32;;;;;;;3.60;2.03;;;26.70;43.50;;;;;;5014982;28;20018;-76
2022/08/25 10:12:59;;;;;;;2.60;2.08;;;26.90;43.00;;;;;;5014537;28;20030;-81
2022/08/25 10:15:37;;;;;;;2.58;2.20;;;27.20;41.20;;;;;;5014640;28;20045;-77
2022/08/25 10:18:22;;;;;;;2.88;2.35;;;27.20;40.50;;;;;;5016065;28;20032;-83
2022/08/25 10:21:06;;;;;;;3.60;2.20;;;27.20;39.90;;;;;;5014265;28;20041;-82
2022/08/25 10:23:36;;;;;;;3.13;2.30;;;27.20;40.20;;;;;;5015639;28;20022;-86
2022/08/25 10:26:09;;;;;;;3.58;2.20;;;27.30;40.50;;;;;;5014134;28;20026;-78
2022/08/25 10:29:01;;;;;;;4.45;2.45;;;27.30;38.90;;;;;;5014144;28;20018;-79
2022/08/25 10:31:40;;;;;;;5.22;2.63;;;27.10;39.80;;;;;;5014292;28;20069;-80
2022/08/25 10:34:30;;;;;;;3.85;2.30;;;27.10;40.10;;;;;;5014244;28;20381;-73
2022/08/25 10:37:14;;;;;;;4.50;2.00;;;27.20;39.60;;;;;;5012797;28;20386;-76
2022/08/25 10:39:44;;;;;;;2.47;2.05;;;27.40;39.00;;;;;;5013869;28;20034;-73
2022/08/25 10:42:28;;;;;;;2.30;2.10;;;27.60;39.50;;;;;;5013769;28;20033;-73
2022/08/25 10:48:25;;;;;;;2.22;2.03;;;28.10;38.20;;;;;;5013905;28;20445;-73
2022/08/25 10:51:11;;;;;;;2.70;2.20;;;28.30;37.60;;;;;;5013810;28;20036;-73
2022/08/25 10:53:53;;;;;;;2.05;1.85;;;28.30;38.00;;;;;;5013491;28;20090;-73
2022/08/25 10:56:27;;;;;;;4.00;2.10;;;28.40;36.70;;;;;;5013840;28;20028;-73
2022/08/25 10:59:11;;;;;;;3.70;1.92;;;28.50;37.30;;;;;;5013592;28;20022;-73
2022/08/25 11:02:07;;;;;;;3.08;2.20;;;28.40;34.50;;;;;;5013649;28;20052;-75
2022/08/25 11:04:53;;;;;;;2.60;2.10;;;28.50;35.70;;;;;;5013746;28;20030;-73
2022/08/25 11:07:28;;;;;;;2.40;1.80;;;28.60;36.50;;;;;;5013486;28;20022;-74
2022/08/25 11:09:58;;;;;;;4.07;1.80;;;28.70;36.40;;;;;;5013721;28;20030;-75
2022/08/25 11:12:31;;;;;;;1.88;1.70;;;28.90;36.00;;;;;;5013705;28;20080;-73
2022/08/25 11:15:02;;;;;;;2.30;2.10;;;29.00;36.50;;;;;;5013220;28;20430;-74
2022/08/25 11:17:41;;;;;;;2.60;1.98;;;29.20;34.70;;;;;;5013444;28;20105;-74
2022/08/25 11:20:13;;;;;;;4.25;1.95;;;29.30;34.70;;;;;;5013305;28;20537;-75
2022/08/25 11:22:44;;;;;;;2.58;1.70;;;29.50;34.20;;;;;;5013288;28;20426;-73
2022/08/25 11:25:31;;;;;;;1.92;1.80;;;29.50;33.60;;;;;;5012927;28;20022;-72
2022/08/25 11:28:20;;;;;;;2.83;1.83;;;29.60;34.40;;;;;;5013120;28;20550;-73
2022/08/25 11:30:47;;;;;;;1.75;1.50;;;29.80;33.60;;;;;;5013027;28;20442;-74
2022/08/25 11:33:17;;;;;;;2.40;1.52;;;29.70;34.00;;;;;;5013206;28;20036;-74
2022/08/25 11:36:07;;;;;;;1.70;1.60;;;29.70;33.90;;;;;;5013225;28;20417;-74
2022/08/25 11:38:55;;;;;;;2.30;1.70;;;29.90;34.70;;;;;;5002857;28;20048;-73
2022/08/25 11:41:34;;;;;;;2.15;1.73;;;30.10;34.90;;;;;;5013251;28;20030;-75
2022/08/25 11:44:09;;;;;;;2.80;1.73;;;30.40;33.90;;;;;;5013194;28;20026;-74
2022/08/25 11:46:59;;;;;;;1.67;1.58;;;30.70;33.20;;;;;;5012948;28;20037;-74
2022/08/25 11:49:44;;;;;;;2.08;1.75;;;30.90;32.10;;;;;;5012600;28;20096;-75
2022/08/25 11:52:32;;;;;;;2.40;1.60;;;31.20;32.00;;;;;;5011914;28;20022;-75
2022/08/25 11:55:45;;;;;;;2.95;1.85;;;31.40;32.40;;;;;;5013045;28;20069;-74
2022/08/25 11:58:29;;;;;;;2.47;1.75;;;31.60;30.60;;;;;;4999271;28;20514;-75
2022/08/25 12:00:57;;;;;;;2.92;1.40;;;31.50;31.30;;;;;;5012731;28;20133;-75
2022/08/25 12:03:32;;;;;;;2.00;1.80;;;31.60;30.30;;;;;;5012982;28;20101;-74
2022/08/25 12:06:26;;;;;;;2.80;1.50;;;31.40;30.00;;;;;;5011765;28;20442;-76
2022/08/25 12:09:04;;;;;;;3.42;1.80;;;31.40;30.20;;;;;;5012793;28;20044;-75
2022/08/25 12:11:44;;;;;;;2.97;1.83;;;31.50;30.30;;;;;;5012907;28;20026;-74
2022/08/25 12:14:21;;;;;;;1.55;1.40;;;31.60;30.30;;;;;;5012605;28;20033;-75
2022/08/25 12:16:50;;;;;;;2.08;1.50;;;31.80;30.30;;;;;;5012834;28;20386;-76
2022/08/25 12:19:33;;;;;;;1.85;1.70;;;32.10;29.70;;;;;;5012640;28;20103;-75
2022/08/25 12:22:02;;;;;;;2.15;1.73;;;32.40;29.20;;;;;;5012709;28;20045;-76
2022/08/25 12:24:42;;;;;;;2.25;2.05;;;32.60;28.60;;;;;;5012736;28;20037;-75
2022/08/25 12:27:37;;;;;;;1.38;1.27;;;32.80;28.20;;;;;;5012537;28;20355;-75
2022/08/25 12:30:24;;;;;;;2.93;1.50;;;32.90;27.60;;;;;;5012836;28;20025;-76
2022/08/25 12:33:04;;;;;;;3.20;1.33;;;33.20;27.60;;;;;;5012801;28;20065;-76
2022/08/25 12:35:56;;;;;;;1.63;1.40;;;33.40;27.00;;;;;;5012640;28;20033;-75
2022/08/25 12:38:51;;;;;;;2.50;1.90;;;33.70;26.80;;;;;;5012652;28;20022;-75
2022/08/25 12:41:24;;;;;;;2.08;1.52;;;34.00;26.30;;;;;;5000010;28;20560;-76
2022/08/25 12:43:53;;;;;;;1.85;1.73;;;34.00;26.40;;;;;;5012640;28;20109;-76
2022/08/25 12:46:18;;;;;;;2.17;1.70;;;33.40;26.30;;;;;;5016006;28;20520;-76
2022/08/25 12:48:59;;;;;;;1.60;1.38;;;33.50;26.20;;;;;;5012605;28;20101;-76
2022/08/25 12:52:01;;;;;;;8.93;2.13;;;33.60;25.40;;;;;;5012137;28;20025;-76
2022/08/25 12:54:47;;;;;;;2.53;1.67;;;33.70;25.80;;;;;;5011060;28;20028;-76
2022/08/25 12:57:37;;;;;;;4.97;2.08;;;34.00;25.60;;;;;;5012158;28;20127;-76
2022/08/25 13:00:18;;;;;;;2.55;1.58;;;33.60;25.60;;;;;;5013096;28;20479;-75
2022/08/25 13:03:03;;;;;;;1.75;1.65;;;32.90;27.10;;;;;;5015831;28;20471;-75
2022/08/25 13:05:43;;;;;;;2.90;1.43;;;32.80;26.90;;;;;;5015829;28;20140;-74
2022/08/25 13:08:32;;;;;;;1.98;1.60;;;32.90;27.80;;;;;;5015879;28;20033;-74
2022/08/25 13:11:08;;;;;;;1.67;1.58;;;32.80;26.60;;;;;;5006642;28;20065;-74
2022/08/25 13:14:20;;;;;;;1.77;1.60;;;32.80;27.10;;;;;;5015640;28;20053;-74
2022/08/25 13:16:54;;;;;;;3.20;1.63;;;33.10;27.00;;;;;;4982402;28;20088;-76
2022/08/25 13:19:21;;;;;;;1.50;1.40;;;33.50;26.50;;;;;;5015571;28;20072;-74
2022/08/25 13:21:47;;;;;;;1.73;1.60;;;33.80;25.60;;;;;;5015475;28;20033;-75